Time;durP1;ratioP1;P1;durP2;ratioP2;P2;SDS_P1;SDS_P2;PMS_P1;PMS_P2;Temp;Humidity;BMP_temperature;BMP_pressure;BME280_temperature;BME280_humidity;BME280_pressure;Samples;Min_cycle;Max_cycle;Signal;HPM_P1;HPM_P2
2022/06/30 06:18:10;;;;;;;10.05;5.82;;;21.00;99.90;;;;;;6819272;86;20284;-83
2022/06/30 06:38:30;;;;;;;8.43;6.05;;;22.10;99.90;;;;;;6790361;87;20178;-81
2022/06/30 06:48:31;;;;;;;9.57;5.97;;;22.60;99.90;;;;;;6791194;87;20188;-81
2022/06/30 06:58:31;;;;;;;9.97;6.10;;;23.10;99.90;;;;;;6791694;87;20677;-79
2022/06/30 07:08:32;;;;;;;8.75;6.28;;;23.50;99.90;;;;;;6791062;87;20501;-82
2022/06/30 07:18:33;;;;;;;10.52;6.40;;;24.40;99.90;;;;;;6790610;87;20300;-81
2022/06/30 07:28:34;;;;;;;8.33;6.37;;;24.90;99.90;;;;;;6779206;87;20253;-81
2022/06/30 07:38:35;;;;;;;10.43;6.45;;;25.70;99.90;;;;;;6774361;87;20511;-82
2022/06/30 07:48:36;;;;;;;8.17;6.27;;;25.70;99.90;;;;;;6787620;87;20261;-81
2022/06/30 07:58:37;;;;;;;9.32;5.70;;;26.30;99.90;;;;;;6776621;87;20187;-82
2022/06/30 08:08:38;;;;;;;7.00;5.60;;;27.30;99.90;;;;;;6775588;87;20705;-81
2022/06/30 08:18:39;;;;;;;8.15;5.45;;;27.90;99.90;;;;;;6776439;87;20203;-81
2022/06/30 08:28:40;;;;;;;7.00;5.07;;;27.40;99.90;;;;;;6775792;87;20208;-81
2022/06/30 08:38:40;;;;;;;7.13;4.67;;;28.20;99.90;;;;;;6773973;87;20666;-82
2022/06/30 08:48:41;;;;;;;6.37;4.68;;;29.50;99.90;;;;;;6774223;87;20647;-81
2022/06/30 08:58:43;;;;;;;6.63;4.50;;;31.10;97.60;;;;;;6774822;87;20696;-82
2022/06/30 09:08:44;;;;;;;6.82;3.65;;;31.60;94.40;;;;;;6753824;88;20200;-81
2022/06/30 09:18:44;;;;;;;6.77;3.57;;;32.10;90.30;;;;;;6757500;87;20222;-81
2022/06/30 09:28:56;;;;;;;6.57;3.90;;;32.50;88.00;;;;;;6757687;87;20208;-81
2022/06/30 09:39:08;;;;;;;6.28;3.90;;;33.20;87.60;;;;;;6757364;88;20480;-82
2022/06/30 09:49:09;;;;;;;6.00;3.70;;;33.90;86.50;;;;;;6756872;88;20225;-81
2022/06/30 09:59:23;;;;;;;5.03;3.80;;;34.70;79.80;;;;;;6758239;88;20204;-82
2022/06/30 10:09:25;;;;;;;5.43;3.53;;;35.30;81.10;;;;;;6764397;88;20208;-82
2022/06/30 10:19:25;;;;;;;4.40;3.05;;;35.00;78.60;;;;;;6757914;88;20231;-82
2022/06/30 10:29:26;;;;;;;4.57;3.00;;;35.30;75.30;;;;;;6757116;88;20203;-82
2022/06/30 10:39:42;;;;;;;3.45;2.87;;;35.60;75.80;;;;;;6773587;87;20215;-82
2022/06/30 10:49:53;;;;;;;4.10;3.15;;;35.00;71.70;;;;;;6775238;87;20184;-81
2022/06/30 10:59:54;;;;;;;4.55;2.65;;;35.50;74.50;;;;;;6771500;87;20236;-81
2022/06/30 11:09:58;;;;;;;3.28;2.92;;;35.30;70.70;;;;;;6774805;87;20195;-82
2022/06/30 11:20:07;;;;;;;7.32;2.90;;;34.40;72.70;;;;;;6776877;87;20198;-82
2022/06/30 11:30:10;;;;;;;5.05;2.53;;;33.40;72.50;;;;;;6759289;87;20386;-82
2022/06/30 11:40:13;;;;;;;3.58;3.08;;;32.60;71.40;;;;;;6755335;87;20195;-82
2022/06/30 11:50:20;;;;;;;8.60;3.40;;;32.20;73.40;;;;;;6755252;87;20278;-81
2022/06/30 12:00:23;;;;;;;8.20;3.17;;;30.30;78.40;;;;;;6770937;87;20317;-80
2022/06/30 12:10:24;;;;;;;11.65;3.05;;;30.30;78.80;;;;;;6777860;87;20199;-80
2022/06/30 12:20:29;;;;;;;5.20;3.00;;;32.00;76.40;;;;;;6776825;87;20222;-80
2022/06/30 12:30:36;;;;;;;5.70;3.10;;;32.70;75.60;;;;;;6770616;87;20242;-81
2022/06/30 12:40:38;;;;;;;4.47;2.78;;;35.20;74.40;;;;;;6767944;87;20225;-81
2022/06/30 12:50:42;;;;;;;6.07;2.78;;;36.30;70.80;;;;;;6769090;87;20189;-80
2022/06/30 13:00:45;;;;;;;4.05;3.12;;;37.00;68.40;;;;;;6768569;87;20282;-80
2022/06/30 13:11:04;;;;;;;8.70;2.97;;;37.20;67.30;;;;;;6776919;87;20191;-81
2022/06/30 13:21:05;;;;;;;4.27;2.87;;;37.30;67.00;;;;;;6763407;87;20193;-80
2022/06/30 13:31:06;;;;;;;3.93;2.60;;;38.20;64.90;;;;;;6756459;88;20283;-80
2022/06/30 13:41:07;;;;;;;3.67;2.55;;;38.00;64.50;;;;;;6776155;87;20201;-80
2022/06/30 13:51:08;;;;;;;3.95;1.90;;;38.70;61.10;;;;;;6771260;87;20235;-79
2022/06/30 14:01:09;;;;;;;6.22;2.20;;;37.90;59.20;;;;;;6761271;87;20200;-79
2022/06/30 14:11:10;;;;;;;4.70;2.10;;;36.30;57.40;;;;;;6764321;88;20256;-80
2022/06/30 14:21:11;;;;;;;3.53;2.25;;;36.40;59.40;;;;;;6755786;88;20696;-80
2022/06/30 14:31:11;;;;;;;4.47;2.47;;;35.20;58.20;;;;;;6758979;88;20223;-80
2022/06/30 14:41:12;;;;;;;4.47;2.42;;;34.60;59.70;;;;;;6758474;88;20196;-82
2022/06/30 14:51:12;;;;;;;3.55;2.30;;;35.00;59.80;;;;;;6767631;88;20240;-81
2022/06/30 15:01:13;;;;;;;5.65;2.60;;;35.60;59.70;;;;;;6760650;88;20297;-80
2022/06/30 15:11:18;;;;;;;3.03;2.72;;;34.00;60.80;;;;;;6759637;88;20216;-81
2022/06/30 15:31:45;;;;;;;4.53;2.75;;;33.70;63.00;;;;;;6760631;88;20210;-81
2022/06/30 15:41:46;;;;;;;4.47;3.05;;;33.90;63.10;;;;;;6770223;87;20203;-80
2022/06/30 15:51:46;;;;;;;4.90;2.97;;;33.10;63.80;;;;;;6770075;87;20758;-79
2022/06/30 16:01:47;;;;;;;3.53;2.70;;;33.30;64.00;;;;;;6765665;87;20180;-78
2022/06/30 16:11:48;;;;;;;3.00;2.70;;;33.90;62.90;;;;;;6773424;87;20624;-80
2022/06/30 16:21:49;;;;;;;3.83;3.20;;;32.40;64.30;;;;;;6788550;87;20322;-81
2022/06/30 16:31:49;;;;;;;7.18;3.60;;;31.50;66.50;;;;;;6787201;87;20213;-81
2022/06/30 16:41:50;;;;;;;9.75;3.78;;;31.10;70.30;;;;;;6781179;87;20213;-79
2022/06/30 16:51:51;;;;;;;10.13;3.80;;;26.80;86.40;;;;;;6780622;87;20213;-81
2022/06/30 17:01:53;;;;;;;5.70;2.50;;;24.00;99.90;;;;;;6764038;88;20188;-78
2022/06/30 17:11:54;;;;;;;6.10;3.37;;;21.30;99.90;;;;;;6768789;88;20209;-79
2022/06/30 17:21:55;;;;;;;9.20;4.15;;;19.90;99.90;;;;;;6764837;88;20171;-80
2022/06/30 17:31:56;;;;;;;9.48;5.20;;;18.50;99.90;;;;;;6770876;88;20213;-80
2022/06/30 17:42:05;;;;;;;12.05;6.57;;;17.90;99.90;;;;;;6768304;88;20187;-82
2022/06/30 17:52:07;;;;;;;17.55;7.40;;;17.70;99.90;;;;;;6763588;88;20184;-79
2022/06/30 18:02:07;;;;;;;14.07;7.03;;;17.20;99.90;;;;;;6762675;88;20183;-80
2022/06/30 18:12:09;;;;;;;6.00;4.60;;;16.90;99.90;;;;;;6773784;88;20764;-80
2022/06/30 18:22:09;;;;;;;6.50;3.80;;;16.50;99.90;;;;;;6771228;87;20174;-80
2022/06/30 18:32:10;;;;;;;4.55;2.97;;;16.40;99.90;;;;;;6771728;88;20179;-80
2022/06/30 18:42:10;;;;;;;5.32;2.33;;;16.10;99.90;;;;;;6770163;87;20304;-80
2022/06/30 18:52:11;;;;;;;3.92;2.40;;;16.10;99.90;;;;;;6761434;87;20352;-81
2022/06/30 19:02:11;;;;;;;6.62;2.70;;;15.70;99.90;;;;;;6761627;88;20211;-79
2022/06/30 19:12:12;;;;;;;5.05;2.20;;;15.60;99.90;;;;;;6765056;88;20210;-80
2022/06/30 19:22:12;;;;;;;3.60;1.80;;;15.70;99.90;;;;;;6767530;87;20199;-80
2022/06/30 19:32:16;;;;;;;3.28;1.60;;;15.80;99.90;;;;;;6770642;87;20189;-79
2022/06/30 19:42:29;;;;;;;2.37;1.70;;;15.80;99.90;;;;;;6770234;88;20191;-80
2022/06/30 19:52:30;;;;;;;3.85;2.10;;;15.70;99.90;;;;;;6773685;87;20353;-81
2022/06/30 20:12:49;;;;;;;6.10;2.60;;;15.40;99.90;;;;;;6772697;87;20233;-80
2022/06/30 20:22:50;;;;;;;3.90;2.20;;;15.40;99.90;;;;;;6775982;87;20269;-82
2022/06/30 20:32:51;;;;;;;4.07;2.20;;;15.50;99.90;;;;;;6770529;87;20266;-81
2022/06/30 20:42:51;;;;;;;5.40;2.47;;;15.30;99.90;;;;;;6770594;87;20192;-81
2022/06/30 20:52:52;;;;;;;6.00;2.47;;;15.40;99.90;;;;;;6769707;87;20302;-80
2022/06/30 21:02:53;;;;;;;5.05;2.75;;;15.40;99.90;;;;;;6770054;87;20207;-81
2022/06/30 21:12:53;;;;;;;5.15;2.90;;;15.30;99.90;;;;;;6763031;87;20211;-79
2022/06/30 21:22:54;;;;;;;5.85;3.12;;;15.30;99.90;;;;;;6768765;87;20185;-80
2022/06/30 21:32:54;;;;;;;6.25;3.53;;;15.00;99.90;;;;;;6786653;87;20627;-79
2022/06/30 21:42:56;;;;;;;5.70;3.20;;;15.20;99.90;;;;;;6769638;87;20314;-80
2022/06/30 21:52:57;;;;;;;4.15;2.30;;;15.10;99.90;;;;;;6773263;87;20565;-79
2022/06/30 22:02:57;;;;;;;3.12;1.75;;;15.10;99.90;;;;;;6765259;87;20191;-79
2022/06/30 22:12:58;;;;;;;5.15;1.77;;;14.80;99.90;;;;;;6776353;87;20204;-80
2022/06/30 22:22:58;;;;;;;4.65;2.33;;;14.80;99.90;;;;;;6778043;87;20892;-79
2022/06/30 22:32:59;;;;;;;3.90;1.98;;;14.50;99.90;;;;;;6774721;87;20239;-81
2022/06/30 22:42:59;;;;;;;3.78;1.90;;;14.50;99.90;;;;;;6770674;87;20235;-79
2022/06/30 22:53:41;;;;;;;2.80;1.80;;;14.50;99.90;;;;;;6750608;77;20426;-82
2022/06/30 23:03:42;;;;;;;4.35;2.50;;;14.30;99.90;;;;;;6698961;88;20192;-81
2022/06/30 23:13:42;;;;;;;4.65;2.67;;;14.30;99.90;;;;;;6709381;88;20218;-82
2022/06/30 23:23:46;;;;;;;3.33;2.17;;;14.40;99.90;;;;;;6668204;89;20232;-82
2022/06/30 23:33:46;;;;;;;3.80;2.33;;;14.70;99.90;;;;;;6672072;88;20621;-82
2022/06/30 23:43:47;;;;;;;5.82;2.12;;;14.50;99.90;;;;;;6692914;88;20197;-82
2022/06/30 23:53:47;;;;;;;3.42;1.80;;;14.70;99.90;;;;;;6675823;87;20971;-83
